sensor_id;sensor_type;location;lat;lon;timestamp;pressure;altitude;pressure_sealevel;temperature;humidity
79586;BME280;69054;50.866;4.636;2024-01-07T00:01:01;101090.19;;;1.97;100.00
79586;BME280;69054;50.866;4.636;2024-01-07T00:03:27;101084.06;;;1.95;100.00
79586;BME280;69054;50.866;4.636;2024-01-07T00:05:52;101085.91;;;1.94;100.00
79586;BME280;69054;50.866;4.636;2024-01-07T00:08:18;101076.72;;;1.97;100.00
79586;BME280;69054;50.866;4.636;2024-01-07T00:10:43;101082.50;;;1.92;100.00
79586;BME280;69054;50.866;4.636;2024-01-07T00:13:09;101084.19;;;1.93;100.00
79586;BME280;69054;50.866;4.636;2024-01-07T00:15:34;101093.88;;;1.96;100.00
79586;BME280;69054;50.866;4.636;2024-01-07T00:17:59;101095.72;;;1.95;100.00
79586;BME280;69054;50.866;4.636;2024-01-07T00:20:25;101090.06;;;1.99;100.00
79586;BME280;69054;50.866;4.636;2024-01-07T00:22:50;101088.34;;;1.98;100.00
79586;BME280;69054;50.866;4.636;2024-01-07T00:25:16;101094.72;;;1.97;100.00
79586;BME280;69054;50.866;4.636;2024-01-07T00:27:43;101102.34;;;1.91;100.00
79586;BME280;69054;50.866;4.636;2024-01-07T00:30:09;101109.47;;;1.92;100.00
79586;BME280;69054;50.866;4.636;2024-01-07T00:32:35;101093.75;;;1.98;100.00
79586;BME280;69054;50.866;4.636;2024-01-07T00:35:00;101103.81;;;1.95;100.00
79586;BME280;69054;50.866;4.636;2024-01-07T00:37:26;101108.19;;;1.97;100.00
79586;BME280;69054;50.866;4.636;2024-01-07T00:39:51;101115.44;;;1.96;100.00
79586;BME280;69054;50.866;4.636;2024-01-07T00:42:16;101106.78;;;1.92;100.00
79586;BME280;69054;50.866;4.636;2024-01-07T00:44:42;101105.03;;;1.91;100.00
79586;BME280;69054;50.866;4.636;2024-01-07T00:47:07;101104.91;;;1.93;100.00
79586;BME280;69054;50.866;4.636;2024-01-07T00:49:33;101115.56;;;1.94;100.00
79586;BME280;69054;50.866;4.636;2024-01-07T00:51:58;101111.16;;;1.93;100.00
79586;BME280;69054;50.866;4.636;2024-01-07T00:54:24;101114.97;;;1.91;100.00
79586;BME280;69054;50.866;4.636;2024-01-07T00:56:49;101117.41;;;1.94;100.00
79586;BME280;69054;50.866;4.636;2024-01-07T00:59:15;101113.13;;;1.91;100.00
79586;BME280;69054;50.866;4.636;2024-01-07T01:01:41;101121.22;;;1.91;100.00
79586;BME280;69054;50.866;4.636;2024-01-07T01:04:06;101116.81;;;1.90;100.00
79586;BME280;69054;50.866;4.636;2024-01-07T01:06:32;101122.00;;;1.82;100.00
79586;BME280;69054;50.866;4.636;2024-01-07T01:08:57;101125.22;;;1.76;100.00
79586;BME280;69054;50.866;4.636;2024-01-07T01:11:22;101123.78;;;1.72;100.00
79586;BME280;69054;50.866;4.636;2024-01-07T01:13:48;101119.22;;;1.72;100.00
79586;BME280;69054;50.866;4.636;2024-01-07T01:16:13;101131.97;;;1.70;100.00
79586;BME280;69054;50.866;4.636;2024-01-07T01:18:39;101134.22;;;1.65;100.00
79586;BME280;69054;50.866;4.636;2024-01-07T01:21:04;101131.31;;;1.57;100.00
79586;BME280;69054;50.866;4.636;2024-01-07T01:23:29;101138.94;;;1.52;100.00
79586;BME280;69054;50.866;4.636;2024-01-07T01:25:55;101132.41;;;1.54;100.00
79586;BME280;69054;50.866;4.636;2024-01-07T01:28:20;101135.59;;;1.48;100.00
79586;BME280;69054;50.866;4.636;2024-01-07T01:30:46;101140.03;;;1.49;100.00
79586;BME280;69054;50.866;4.636;2024-01-07T01:33:12;101145.34;;;1.39;100.00
79586;BME280;69054;50.866;4.636;2024-01-07T01:35:38;101147.28;;;1.37;100.00
79586;BME280;69054;50.866;4.636;2024-01-07T01:38:03;101151.38;;;1.32;100.00
79586;BME280;69054;50.866;4.636;2024-01-07T01:40:29;101153.06;;;1.33;100.00
79586;BME280;69054;50.866;4.636;2024-01-07T01:42:54;101156.63;;;1.33;100.00
79586;BME280;69054;50.866;4.636;2024-01-07T01:45:20;101159.53;;;1.30;100.00
79586;BME280;69054;50.866;4.636;2024-01-07T01:47:46;101163.69;;;1.34;100.00
79586;BME280;69054;50.866;4.636;2024-01-07T01:50:11;101160.41;;;1.31;100.00
79586;BME280;69054;50.866;4.636;2024-01-07T01:52:37;101170.22;;;1.32;100.00
79586;BME280;69054;50.866;4.636;2024-01-07T01:55:03;101166.03;;;1.28;100.00
79586;BME280;69054;50.866;4.636;2024-01-07T01:57:33;101173.50;;;1.24;100.00
79586;BME280;69054;50.866;4.636;2024-01-07T02:00:04;101164.72;;;1.22;100.00
79586;BME280;69054;50.866;4.636;2024-01-07T02:02:31;101174.88;;;1.18;100.00
79586;BME280;69054;50.866;4.636;2024-01-07T02:05:02;101167.53;;;1.20;100.00
79586;BME280;69054;50.866;4.636;2024-01-07T02:07:28;101169.50;;;1.18;100.00
79586;BME280;69054;50.866;4.636;2024-01-07T02:09:58;101179.25;;;1.19;100.00
79586;BME280;69054;50.866;4.636;2024-01-07T02:12:24;101177.56;;;1.18;100.00
79586;BME280;69054;50.866;4.636;2024-01-07T02:14:49;101175.97;;;1.16;100.00
79586;BME280;69054;50.866;4.636;2024-01-07T02:17:15;101177.06;;;1.13;100.00
79586;BME280;69054;50.866;4.636;2024-01-07T02:19:41;101181.25;;;1.17;100.00
79586;BME280;69054;50.866;4.636;2024-01-07T02:22:07;101180.97;;;1.20;100.00
79586;BME280;69054;50.866;4.636;2024-01-07T02:24:32;101180.50;;;1.15;100.00
79586;BME280;69054;50.866;4.636;2024-01-07T02:26:58;101181.88;;;1.10;100.00
79586;BME280;69054;50.866;4.636;2024-01-07T02:29:28;101183.59;;;1.11;100.00
79586;BME280;69054;50.866;4.636;2024-01-07T02:31:53;101187.25;;;1.10;100.00
79586;BME280;69054;50.866;4.636;2024-01-07T02:34:18;101188.97;;;1.11;100.00
79586;BME280;69054;50.866;4.636;2024-01-07T02:36:44;101188.09;;;1.10;100.00
79586;BME280;69054;50.866;4.636;2024-01-07T02:39:09;101196.03;;;1.12;100.00
79586;BME280;69054;50.866;4.636;2024-01-07T02:41:35;101194.72;;;1.06;100.00
79586;BME280;69054;50.866;4.636;2024-01-07T02:44:00;101193.47;;;1.10;100.00
79586;BME280;69054;50.866;4.636;2024-01-07T02:46:25;101191.16;;;1.05;100.00
79586;BME280;69054;50.866;4.636;2024-01-07T02:48:51;101194.22;;;1.01;100.00
79586;BME280;69054;50.866;4.636;2024-01-07T02:51:16;101194.81;;;1.04;100.00
79586;BME280;69054;50.866;4.636;2024-01-07T02:53:42;101205.72;;;1.03;100.00
79586;BME280;69054;50.866;4.636;2024-01-07T02:56:07;101207.69;;;1.01;100.00
79586;BME280;69054;50.866;4.636;2024-01-07T02:58:34;101201.56;;;0.99;100.00
79586;BME280;69054;50.866;4.636;2024-01-07T03:00:59;101202.53;;;0.98;100.00
79586;BME280;69054;50.866;4.636;2024-01-07T03:03:25;101206.97;;;0.99;100.00
79586;BME280;69054;50.866;4.636;2024-01-07T03:05:51;101212.22;;;1.00;100.00
79586;BME280;69054;50.866;4.636;2024-01-07T03:08:16;101208.66;;;1.00;100.00
79586;BME280;69054;50.866;4.636;2024-01-07T03:10:42;101216.84;;;0.98;100.00
79586;BME280;69054;50.866;4.636;2024-01-07T03:13:07;101216.00;;;0.98;100.00
79586;BME280;69054;50.866;4.636;2024-01-07T03:15:32;101226.66;;;0.99;100.00
79586;BME280;69054;50.866;4.636;2024-01-07T03:17:58;101225.03;;;0.97;100.00
79586;BME280;69054;50.866;4.636;2024-01-07T03:20:23;101217.72;;;0.99;100.00
79586;BME280;69054;50.866;4.636;2024-01-07T03:22:49;101227.97;;;0.94;100.00
79586;BME280;69054;50.866;4.636;2024-01-07T03:25:14;101232.41;;;0.95;100.00
79586;BME280;69054;50.866;4.636;2024-01-07T03:27:39;101229.09;;;0.91;100.00
79586;BME280;69054;50.866;4.636;2024-01-07T03:30:05;101228.84;;;0.94;100.00
79586;BME280;69054;50.866;4.636;2024-01-07T03:32:31;101229.81;;;0.93;100.00
79586;BME280;69054;50.866;4.636;2024-01-07T03:34:59;101238.38;;;0.87;100.00
79586;BME280;69054;50.866;4.636;2024-01-07T03:37:25;101240.13;;;0.88;100.00
79586;BME280;69054;50.866;4.636;2024-01-07T03:39:50;101232.16;;;0.86;100.00
79586;BME280;69054;50.866;4.636;2024-01-07T03:42:16;101244.97;;;0.83;100.00
79586;BME280;69054;50.866;4.636;2024-01-07T03:44:41;101242.28;;;0.72;100.00
79586;BME280;69054;50.866;4.636;2024-01-07T03:47:06;101250.72;;;0.67;100.00
79586;BME280;69054;50.866;4.636;2024-01-07T03:49:32;101246.19;;;0.67;100.00
79586;BME280;69054;50.866;4.636;2024-01-07T03:51:57;101251.69;;;0.66;100.00
79586;BME280;69054;50.866;4.636;2024-01-07T03:54:23;101247.03;;;0.68;100.00
79586;BME280;69054;50.866;4.636;2024-01-07T03:56:48;101249.00;;;0.66;100.00
79586;BME280;69054;50.866;4.636;2024-01-07T03:59:14;101249.25;;;0.63;100.00
79586;BME280;69054;50.866;4.636;2024-01-07T04:01:39;101251.69;;;0.66;100.00
79586;BME280;69054;50.866;4.636;2024-01-07T04:04:05;101250.72;;;0.67;100.00
79586;BME280;69054;50.866;4.636;2024-01-07T04:06:30;101255.13;;;0.68;100.00
79586;BME280;69054;50.866;4.636;2024-01-07T04:08:56;101261.97;;;0.72;100.00
79586;BME280;69054;50.866;4.636;2024-01-07T04:11:21;101258.31;;;0.73;100.00
79586;BME280;69054;50.866;4.636;2024-01-07T04:13:47;101263.94;;;0.70;100.00
79586;BME280;69054;50.866;4.636;2024-01-07T04:16:19;101276.41;;;0.71;100.00
79586;BME280;69054;50.866;4.636;2024-01-07T04:18:45;101264.44;;;0.75;100.00
79586;BME280;69054;50.866;4.636;2024-01-07T04:21:11;101275.53;;;0.70;100.00
79586;BME280;69054;50.866;4.636;2024-01-07T04:23:38;101278.59;;;0.66;100.00
79586;BME280;69054;50.866;4.636;2024-01-07T04:26:04;101279.81;;;0.62;100.00
79586;BME280;69054;50.866;4.636;2024-01-07T04:28:29;101284.69;;;0.68;100.00
79586;BME280;69054;50.866;4.636;2024-01-07T04:30:55;101281.16;;;0.67;100.00
79586;BME280;69054;50.866;4.636;2024-01-07T04:33:20;101279.81;;;0.62;100.00
79586;BME280;69054;50.866;4.636;2024-01-07T04:35:45;101273.69;;;0.60;100.00
79586;BME280;69054;50.866;4.636;2024-01-07T04:38:11;101272.50;;;0.64;100.00
79586;BME280;69054;50.866;4.636;2024-01-07T04:40:36;101273.56;;;0.61;100.00
79586;BME280;69054;50.866;4.636;2024-01-07T04:43:02;101276.16;;;0.63;100.00
79586;BME280;69054;50.866;4.636;2024-01-07T04:45:27;101286.66;;;0.66;100.00
79586;BME280;69054;50.866;4.636;2024-01-07T04:47:53;101279.56;;;0.65;100.00
79586;BME280;69054;50.866;4.636;2024-01-07T04:50:21;101283.97;;;0.66;100.00
79586;BME280;69054;50.866;4.636;2024-01-07T04:52:46;101281.53;;;0.63;100.00
79586;BME280;69054;50.866;4.636;2024-01-07T04:55:12;101279.81;;;0.62;100.00
79586;BME280;69054;50.866;4.636;2024-01-07T04:57:37;101287.88;;;0.62;100.00
79586;BME280;69054;50.866;4.636;2024-01-07T05:00:03;101285.06;;;0.63;100.00
79586;BME280;69054;50.866;4.636;2024-01-07T05:02:29;101286.66;;;0.66;100.00
79586;BME280;69054;50.866;4.636;2024-01-07T05:04:54;101289.00;;;0.59;100.00
79586;BME280;69054;50.866;4.636;2024-01-07T05:07:20;101290.56;;;0.62;100.00
79586;BME280;69054;50.866;4.636;2024-01-07T05:09:45;101290.56;;;0.62;100.00
79586;BME280;69054;50.866;4.636;2024-01-07T05:12:11;101294.00;;;0.64;100.00
79586;BME280;69054;50.866;4.636;2024-01-07T05:14:36;101292.75;;;0.57;100.00
79586;BME280;69054;50.866;4.636;2024-01-07T05:17:02;101299.38;;;0.64;100.00
79586;BME280;69054;50.866;4.636;2024-01-07T05:19:29;101306.22;;;0.68;100.00
79586;BME280;69054;50.866;4.636;2024-01-07T05:21:55;101312.38;;;0.70;100.00
79586;BME280;69054;50.866;4.636;2024-01-07T05:24:21;101302.31;;;0.72;100.00
79586;BME280;69054;50.866;4.636;2024-01-07T05:26:47;101313.09;;;0.72;100.00
79586;BME280;69054;50.866;4.636;2024-01-07T05:29:12;101314.28;;;0.68;100.00
79586;BME280;69054;50.866;4.636;2024-01-07T05:31:39;101314.19;;;0.69;100.00
79586;BME280;69054;50.866;4.636;2024-01-07T05:34:05;101326.16;;;0.65;100.00
79586;BME280;69054;50.866;4.636;2024-01-07T05:36:31;101333.38;;;0.65;100.00
79586;BME280;69054;50.866;4.636;2024-01-07T05:38:56;101335.94;;;0.66;100.00
79586;BME280;69054;50.866;4.636;2024-01-07T05:41:22;101339.25;;;0.70;100.00
79586;BME280;69054;50.866;4.636;2024-01-07T05:43:48;101344.13;;;0.65;100.00
79586;BME280;69054;50.866;4.636;2024-01-07T05:46:13;101345.47;;;0.59;100.00
79586;BME280;69054;50.866;4.636;2024-01-07T05:48:42;101350.97;;;0.58;100.00
79586;BME280;69054;50.866;4.636;2024-01-07T05:51:09;101354.16;;;0.63;100.00
79586;BME280;69054;50.866;4.636;2024-01-07T05:53:34;101351.09;;;0.67;100.00
79586;BME280;69054;50.866;4.636;2024-01-07T05:56:00;101356.72;;;0.64;100.00
79586;BME280;69054;50.866;4.636;2024-01-07T05:58:25;101358.69;;;0.62;100.00
79586;BME280;69054;50.866;4.636;2024-01-07T06:00:51;101357.94;;;0.60;100.00
79586;BME280;69054;50.866;4.636;2024-01-07T06:03:16;101361.13;;;0.65;100.00
79586;BME280;69054;50.866;4.636;2024-01-07T06:05:42;101362.00;;;0.66;100.00
79586;BME280;69054;50.866;4.636;2024-01-07T06:08:07;101360.03;;;0.68;100.00
79586;BME280;69054;50.866;4.636;2024-01-07T06:10:32;101358.09;;;0.70;100.00
79586;BME280;69054;50.866;4.636;2024-01-07T06:12:58;101360.03;;;0.68;100.00
79586;BME280;69054;50.866;4.636;2024-01-07T06:15:23;101363.72;;;0.67;100.00
79586;BME280;69054;50.866;4.636;2024-01-07T06:17:49;101373.94;;;0.62;100.00
79586;BME280;69054;50.866;4.636;2024-01-07T06:20:14;101363.19;;;0.62;100.00
79586;BME280;69054;50.866;4.636;2024-01-07T06:22:40;101373.72;;;0.65;100.00
79586;BME280;69054;50.866;4.636;2024-01-07T06:25:05;101382.91;;;0.62;100.00
79586;BME280;69054;50.866;4.636;2024-01-07T06:27:31;101382.66;;;0.65;100.00
79586;BME280;69054;50.866;4.636;2024-01-07T06:29:56;101386.44;;;0.63;100.00
79586;BME280;69054;50.866;4.636;2024-01-07T06:32:22;101389.34;;;0.60;100.00
79586;BME280;69054;50.866;4.636;2024-01-07T06:34:50;101401.84;;;0.61;100.00
79586;BME280;69054;50.866;4.636;2024-01-07T06:37:16;101405.25;;;0.63;100.00
79586;BME280;69054;50.866;4.636;2024-01-07T06:39:41;101401.84;;;0.61;100.00
79586;BME280;69054;50.866;4.636;2024-01-07T06:42:06;101407.00;;;0.64;100.00
79586;BME280;69054;50.866;4.636;2024-01-07T06:44:32;101413.94;;;0.66;100.00
79586;BME280;69054;50.866;4.636;2024-01-07T06:46:57;101421.16;;;0.66;100.00
79586;BME280;69054;50.866;4.636;2024-01-07T06:49:23;101417.53;;;0.67;100.00
79586;BME280;69054;50.866;4.636;2024-01-07T06:51:48;101425.16;;;0.60;100.00
79586;BME280;69054;50.866;4.636;2024-01-07T06:54:14;101430.31;;;0.63;100.00
79586;BME280;69054;50.866;4.636;2024-01-07T06:56:39;101437.88;;;0.58;100.00
79586;BME280;69054;50.866;4.636;2024-01-07T06:59:05;101428.97;;;0.58;100.00
79586;BME280;69054;50.866;4.636;2024-01-07T07:01:32;101432.63;;;0.57;100.00
79586;BME280;69054;50.866;4.636;2024-01-07T07:03:58;101439.19;;;0.52;100.00
79586;BME280;69054;50.866;4.636;2024-01-07T07:06:23;101436.00;;;0.47;100.00
79586;BME280;69054;50.866;4.636;2024-01-07T07:08:49;101441.28;;;0.49;100.00
79586;BME280;69054;50.866;4.636;2024-01-07T07:11:15;101450.06;;;0.51;100.00
79586;BME280;69054;50.866;4.636;2024-01-07T07:13:41;101450.72;;;0.55;100.00
79586;BME280;69054;50.866;4.636;2024-01-07T07:16:06;101448.34;;;0.50;100.00
79586;BME280;69054;50.866;4.636;2024-01-07T07:18:33;101450.06;;;0.51;100.00
79586;BME280;69054;50.866;4.636;2024-01-07T07:20:58;101452.66;;;0.52;100.00
79586;BME280;69054;50.866;4.636;2024-01-07T07:23:27;101465.25;;;0.52;100.00
79586;BME280;69054;50.866;4.636;2024-01-07T07:25:52;101465.34;;;0.50;100.00
79586;BME280;69054;50.866;4.636;2024-01-07T07:28:17;101475.13;;;0.51;100.00
79586;BME280;69054;50.866;4.636;2024-01-07T07:30:43;101470.75;;;0.50;100.00
79586;BME280;69054;50.866;4.636;2024-01-07T07:33:09;101473.19;;;0.53;100.00
79586;BME280;69054;50.866;4.636;2024-01-07T07:35:34;101475.66;;;0.57;100.00
79586;BME280;69054;50.866;4.636;2024-01-07T07:38:02;101483.50;;;0.60;100.00
79586;BME280;69054;50.866;4.636;2024-01-07T07:40:28;101481.28;;;0.53;100.00
79586;BME280;69054;50.866;4.636;2024-01-07T07:42:53;101489.91;;;0.46;100.00
79586;BME280;69054;50.866;4.636;2024-01-07T07:45:18;101491.50;;;0.48;100.00
79586;BME280;69054;50.866;4.636;2024-01-07T07:47:44;101494.28;;;0.47;100.00
79586;BME280;69054;50.866;4.636;2024-01-07T07:50:13;101496.34;;;0.56;100.00
79586;BME280;69054;50.866;4.636;2024-01-07T07:52:38;101500.09;;;0.53;100.00
79586;BME280;69054;50.866;4.636;2024-01-07T07:55:04;101504.50;;;0.55;100.00
79586;BME280;69054;50.866;4.636;2024-01-07T07:57:30;101496.75;;;0.50;100.00
79586;BME280;69054;50.866;4.636;2024-01-07T07:59:55;101505.81;;;0.49;100.00
79586;BME280;69054;50.866;4.636;2024-01-07T08:02:21;101515.81;;;0.47;100.00
79586;BME280;69054;50.866;4.636;2024-01-07T08:04:47;101514.22;;;0.44;100.00
79586;BME280;69054;50.866;4.636;2024-01-07T08:07:13;101516.25;;;0.41;100.00
79586;BME280;69054;50.866;4.636;2024-01-07T08:09:38;101515.84;;;0.34;100.00
79586;BME280;69054;50.866;4.636;2024-01-07T08:12:05;101520.28;;;0.35;100.00
79586;BME280;69054;50.866;4.636;2024-01-07T08:14:31;101530.16;;;0.34;100.00
79586;BME280;69054;50.866;4.636;2024-01-07T08:16:57;101530.03;;;0.36;100.00
79586;BME280;69054;50.866;4.636;2024-01-07T08:19:22;101534.47;;;0.37;100.00
79586;BME280;69054;50.866;4.636;2024-01-07T08:21:48;101539.94;;;0.35;100.00
79586;BME280;69054;50.866;4.636;2024-01-07T08:24:13;101539.09;;;0.35;100.00
79586;BME280;69054;50.866;4.636;2024-01-07T08:26:39;101540.69;;;0.38;100.00
79586;BME280;69054;50.866;4.636;2024-01-07T08:29:04;101540.56;;;0.39;100.00
79586;BME280;69054;50.866;4.636;2024-01-07T08:31:31;101548.41;;;0.42;100.00
79586;BME280;69054;50.866;4.636;2024-01-07T08:33:56;101545.00;;;0.40;100.00
79586;BME280;69054;50.866;4.636;2024-01-07T08:36:22;101547.47;;;0.43;100.00
79586;BME280;69054;50.866;4.636;2024-01-07T08:38:48;101552.09;;;0.41;100.00
79586;BME280;69054;50.866;4.636;2024-01-07T08:41:17;101552.72;;;0.45;100.00
79586;BME280;69054;50.866;4.636;2024-01-07T08:43:43;101560.44;;;0.49;100.00
79586;BME280;69054;50.866;4.636;2024-01-07T08:46:10;101560.69;;;0.46;100.00
79586;BME280;69054;50.866;4.636;2024-01-07T08:48:35;101561.75;;;0.44;100.00
79586;BME280;69054;50.866;4.636;2024-01-07T08:51:01;101572.72;;;0.41;100.00
79586;BME280;69054;50.866;4.636;2024-01-07T08:53:26;101581.69;;;0.41;100.00
79586;BME280;69054;50.866;4.636;2024-01-07T08:55:52;101580.06;;;0.39;100.00
79586;BME280;69054;50.866;4.636;2024-01-07T08:58:17;101587.16;;;0.40;100.00
79586;BME280;69054;50.866;4.636;2024-01-07T09:00:43;101589.97;;;0.38;100.00
79586;BME280;69054;50.866;4.636;2024-01-07T09:03:09;101589.41;;;0.33;100.00
79586;BME280;69054;50.866;4.636;2024-01-07T09:05:35;101592.31;;;0.30;100.00
79586;BME280;69054;50.866;4.636;2024-01-07T09:08:01;101588.69;;;0.31;100.00
79586;BME280;69054;50.866;4.636;2024-01-07T09:10:27;101585.88;;;0.20;100.00
79586;BME280;69054;50.866;4.636;2024-01-07T09:12:53;101599.88;;;0.25;100.00
79586;BME280;69054;50.866;4.636;2024-01-07T09:15:19;101600.72;;;0.25;100.00
79586;BME280;69054;50.866;4.636;2024-01-07T09:17:45;101600.50;;;0.28;100.00
79586;BME280;69054;50.866;4.636;2024-01-07T09:20:11;101605.88;;;0.28;100.00
79586;BME280;69054;50.866;4.636;2024-01-07T09:22:37;101609.44;;;0.29;100.00
79586;BME280;69054;50.866;4.636;2024-01-07T09:25:03;101616.53;;;0.30;100.00
79586;BME280;69054;50.866;4.636;2024-01-07T09:27:29;101618.47;;;0.28;100.00
79586;BME280;69054;50.866;4.636;2024-01-07T09:29:55;101614.38;;;0.22;100.00
79586;BME280;69054;50.866;4.636;2024-01-07T09:32:20;101630.84;;;0.17;100.00
79586;BME280;69054;50.866;4.636;2024-01-07T09:34:46;101637.16;;;0.16;100.00
79586;BME280;69054;50.866;4.636;2024-01-07T09:37:11;101645.88;;;0.07;100.00
79586;BME280;69054;50.866;4.636;2024-01-07T09:39:40;101634.69;;;0.01;100.00
79586;BME280;69054;50.866;4.636;2024-01-07T09:42:15;101647.06;;;0.03;100.00
79586;BME280;69054;50.866;4.636;2024-01-07T09:44:41;101638.25;;;0.01;100.00
79586;BME280;69054;50.866;4.636;2024-01-07T09:47:10;101651.34;;;0.06;100.00
79586;BME280;69054;50.866;4.636;2024-01-07T09:49:36;101644.72;;;0.11;100.00
79586;BME280;69054;50.866;4.636;2024-01-07T09:52:03;101652.78;;;0.11;100.00
79586;BME280;69054;50.866;4.636;2024-01-07T09:54:30;101649.13;;;0.12;100.00
79586;BME280;69054;50.866;4.636;2024-01-07T09:57:02;101652.56;;;0.02;100.00
79586;BME280;69054;50.866;4.636;2024-01-07T09:59:30;101656.28;;;-0.14;100.00
79586;BME280;69054;50.866;4.636;2024-01-07T10:01:57;101658.13;;;-0.14;100.00
79586;BME280;69054;50.866;4.636;2024-01-07T10:04:26;101663.81;;;-0.19;100.00
79586;BME280;69054;50.866;4.636;2024-01-07T10:06:53;101665.84;;;-0.23;100.00
79586;BME280;69054;50.866;4.636;2024-01-07T10:09:20;101661.97;;;-0.19;100.00
79586;BME280;69054;50.866;4.636;2024-01-07T10:11:47;101666.50;;;-0.19;100.00
79586;BME280;69054;50.866;4.636;2024-01-07T10:14:12;101669.81;;;-0.15;100.00
79586;BME280;69054;50.866;4.636;2024-01-07T10:16:39;101667.91;;;-0.13;100.00
79586;BME280;69054;50.866;4.636;2024-01-07T10:19:04;101676.72;;;-0.11;100.00
79586;BME280;69054;50.866;4.636;2024-01-07T10:21:30;101671.97;;;-0.08;100.00
79586;BME280;69054;50.866;4.636;2024-01-07T10:24:11;101678.97;;;-0.05;100.00
79586;BME280;69054;50.866;4.636;2024-01-07T10:26:41;101675.13;;;-0.01;100.00
79586;BME280;69054;50.866;4.636;2024-01-07T10:29:07;101678.44;;;0.03;100.00
79586;BME280;69054;50.866;4.636;2024-01-07T10:31:38;101678.75;;;-0.02;100.00
79586;BME280;69054;50.866;4.636;2024-01-07T10:34:07;101679.72;;;-0.03;100.00
79586;BME280;69054;50.866;4.636;2024-01-07T10:36:34;101677.91;;;-0.03;100.00
79586;BME280;69054;50.866;4.636;2024-01-07T10:38:59;101685.66;;;0.02;100.00
79586;BME280;69054;50.866;4.636;2024-01-07T10:41:25;101683.19;;;-0.01;100.00
79586;BME280;69054;50.866;4.636;2024-01-07T10:43:52;101680.72;;;-0.04;100.00
79586;BME280;69054;50.866;4.636;2024-01-07T10:46:18;101683.03;;;-0.12;100.00
79586;BME280;69054;50.866;4.636;2024-01-07T10:48:59;101679.81;;;-0.05;100.00
79586;BME280;69054;50.866;4.636;2024-01-07T10:51:27;101688.97;;;-0.07;100.00
79586;BME280;69054;50.866;4.636;2024-01-07T10:53:53;101681.13;;;-0.10;100.00
79586;BME280;69054;50.866;4.636;2024-01-07T10:56:28;101683.03;;;-0.12;100.00
79586;BME280;69054;50.866;4.636;2024-01-07T10:58:58;101682.19;;;-0.13;100.00
79586;BME280;69054;50.866;4.636;2024-01-07T11:01:25;101687.56;;;-0.13;100.00
79586;BME280;69054;50.866;4.636;2024-01-07T11:06:33;101676.81;;;-0.13;100.00
79586;BME280;69054;50.866;4.636;2024-01-07T11:09:16;101683.25;;;-0.15;100.00
79586;BME280;69054;50.866;4.636;2024-01-07T11:11:44;101688.41;;;-0.12;100.00
79586;BME280;69054;50.866;4.636;2024-01-07T11:14:35;101693.38;;;-0.06;100.00
79586;BME280;69054;50.866;4.636;2024-01-07T11:17:08;101692.53;;;-0.07;100.00
79586;BME280;69054;50.866;4.636;2024-01-07T11:19:37;101691.47;;;-0.04;100.00
79586;BME280;69054;50.866;4.636;2024-01-07T11:22:29;101694.47;;;-0.09;100.00
79586;BME280;69054;50.866;4.636;2024-01-07T11:24:59;101691.88;;;-0.10;100.00
79586;BME280;69054;50.866;4.636;2024-01-07T11:27:28;101693.56;;;-0.09;100.00
79586;BME280;69054;50.866;4.636;2024-01-07T11:32:22;101694.25;;;-0.06;100.00
79586;BME280;69054;50.866;4.636;2024-01-07T11:34:48;101701.88;;;0.01;100.00
79586;BME280;69054;50.866;4.636;2024-01-07T11:37:17;101690.47;;;-0.03;100.00
79586;BME280;69054;50.866;4.636;2024-01-07T11:39:46;101703.06;;;-0.04;100.00
79586;BME280;69054;50.866;4.636;2024-01-07T11:42:13;101694.88;;;-0.02;100.00
79586;BME280;69054;50.866;4.636;2024-01-07T11:44:48;101693.56;;;-0.09;100.00
79586;BME280;69054;50.866;4.636;2024-01-07T11:47:18;101693.25;;;-0.05;100.00
79586;BME280;69054;50.866;4.636;2024-01-07T11:49:44;101707.38;;;-0.01;100.00
79586;BME280;69054;50.866;4.636;2024-01-07T11:52:10;101686.59;;;-0.12;100.00
79586;BME280;69054;50.866;4.636;2024-01-07T11:54:39;101692.72;;;-0.23;100.00
79586;BME280;69054;50.866;4.636;2024-01-07T11:57:05;101680.22;;;-0.24;100.00
79586;BME280;69054;50.866;4.636;2024-01-07T11:59:31;101698.19;;;-0.24;100.00
79586;BME280;69054;50.866;4.636;2024-01-07T12:01:59;101687.88;;;-0.17;100.00
79586;BME280;69054;50.866;4.636;2024-01-07T12:04:24;101703.00;;;-0.29;100.00
79586;BME280;69054;50.866;4.636;2024-01-07T12:06:50;101697.31;;;-0.25;100.00
79586;BME280;69054;50.866;4.636;2024-01-07T12:09:15;101702.56;;;-0.23;100.00
79586;BME280;69054;50.866;4.636;2024-01-07T12:11:41;101704.63;;;-0.27;100.00
79586;BME280;69054;50.866;4.636;2024-01-07T12:14:08;101701.63;;;-0.22;100.00
79586;BME280;69054;50.866;4.636;2024-01-07T12:16:35;101708.63;;;-0.20;100.00
79586;BME280;69054;50.866;4.636;2024-01-07T12:19:00;101703.88;;;-0.16;100.00
79586;BME280;69054;50.866;4.636;2024-01-07T12:21:26;101708.72;;;-0.21;100.00
79586;BME280;69054;50.866;4.636;2024-01-07T12:23:54;101703.16;;;-0.18;100.00
79586;BME280;69054;50.866;4.636;2024-01-07T12:26:19;101712.81;;;-0.15;100.00
79586;BME280;69054;50.866;4.636;2024-01-07T12:28:52;101705.72;;;-0.16;100.00
79586;BME280;69054;50.866;4.636;2024-01-07T12:31:19;101703.69;;;-0.13;100.00
79586;BME280;69054;50.866;4.636;2024-01-07T12:33:46;101702.53;;;-0.09;100.00
79586;BME280;69054;50.866;4.636;2024-01-07T12:36:11;101707.00;;;-0.09;100.00
79586;BME280;69054;50.866;4.636;2024-01-07T12:38:37;101705.84;;;-0.05;100.00
79586;BME280;69054;50.866;4.636;2024-01-07T12:41:06;101710.78;;;-0.12;100.00
79586;BME280;69054;50.866;4.636;2024-01-07T12:43:32;101708.84;;;-0.10;100.00
79586;BME280;69054;50.866;4.636;2024-01-07T12:45:57;101706.47;;;-0.14;100.00
79586;BME280;69054;50.866;4.636;2024-01-07T12:48:26;101714.13;;;-0.08;100.00